Time;durP1;ratioP1;P1;durP2;ratioP2;P2;SDS_P1;SDS_P2;PMS_P1;PMS_P2;Temp;Humidity;BMP_temperature;BMP_pressure;BME280_temperature;BME280_humidity;BME280_pressure;Samples;Min_cycle;Max_cycle;Signal;HPM_P1;HPM_P2
2024/01/08 00:00:03;;;;;;;5.25;3.50;;;;;;;-2.39;100.00;103270.41;5049852;28;20061;-71
2024/01/08 00:02:49;;;;;;;5.63;3.33;;;;;;;-2.40;100.00;103270.38;5055105;28;20052;-71
2024/01/08 00:05:39;;;;;;;5.55;3.08;;;;;;;-2.41;100.00;103274.66;5053193;28;21052;-72
2024/01/08 00:08:25;;;;;;;7.05;3.42;;;;;;;-2.40;100.00;103272.97;5036973;28;20847;-72
2024/01/08 00:11:11;;;;;;;7.00;3.28;;;;;;;-2.40;100.00;103267.78;5052974;28;20132;-72
2024/01/08 00:13:56;;;;;;;6.40;3.67;;;;;;;-2.39;100.00;103264.38;5027361;28;20043;-72
2024/01/08 00:16:43;;;;;;;6.47;3.78;;;;;;;-2.42;100.00;103265.09;5045375;28;20072;-72
2024/01/08 00:19:29;;;;;;;7.72;3.03;;;;;;;-2.41;100.00;103266.88;5053144;28;20082;-71
2024/01/08 00:22:15;;;;;;;6.28;3.40;;;;;;;-2.41;100.00;103269.47;5021403;28;20033;-72
2024/01/08 00:25:01;;;;;;;6.40;3.10;;;;;;;-2.41;100.00;103268.59;5037377;28;20582;-72
2024/01/08 00:27:47;;;;;;;4.80;3.08;;;;;;;-2.39;100.00;103273.03;5051079;28;20048;-72
2024/01/08 00:30:32;;;;;;;9.35;3.72;;;;;;;-2.40;100.00;103281.63;5046367;28;20553;-72
2024/01/08 00:33:18;;;;;;;5.75;3.10;;;;;;;-2.40;100.00;103284.22;5051121;28;20995;-72
2024/01/08 00:36:04;;;;;;;6.25;3.50;;;;;;;-2.41;100.00;103282.44;5033616;28;20032;-72
2024/01/08 00:38:50;;;;;;;9.25;3.88;;;;;;;-2.42;100.00;103280.66;5040330;28;20052;-72
2024/01/08 00:41:36;;;;;;;5.63;3.35;;;;;;;-2.41;100.00;103278.97;5054741;28;20040;-72
2024/01/08 00:44:22;;;;;;;5.03;3.03;;;;;;;-2.41;100.00;103278.97;5043806;28;20047;-72
2024/01/08 00:47:07;;;;;;;7.03;4.10;;;;;;;-2.39;100.00;103285.13;5052159;28;20053;-72
2024/01/08 00:49:53;;;;;;;5.20;3.42;;;;;;;-2.42;100.00;103278.06;5055488;28;20053;-72
2024/01/08 00:52:40;;;;;;;7.03;3.65;;;;;;;-2.41;100.00;103278.97;5035031;28;20052;-72
2024/01/08 00:55:26;;;;;;;5.82;3.65;;;;;;;-2.42;100.00;103280.66;5042211;28;20044;-72
2024/01/08 00:58:11;;;;;;;7.57;3.13;;;;;;;-2.40;100.00;103278.16;5041279;28;20051;-72
2024/01/08 01:00:57;;;;;;;6.32;3.50;;;;;;;-2.40;100.00;103273.84;5051601;28;20044;-71
2024/01/08 01:03:43;;;;;;;6.30;3.45;;;;;;;-2.39;100.00;103265.22;5038495;28;20171;-71
2024/01/08 01:06:29;;;;;;;5.85;3.42;;;;;;;-2.36;100.00;103280.06;5052546;28;20052;-71
2024/01/08 01:09:15;;;;;;;5.95;3.70;;;;;;;-2.37;100.00;103275.69;5052632;28;20495;-73
2024/01/08 01:12:01;;;;;;;5.57;3.20;;;;;;;-2.36;100.00;103278.38;5039829;28;20064;-70
2024/01/08 01:14:47;;;;;;;6.90;3.45;;;;;;;-2.37;100.00;103292.16;5049444;28;20131;-72
2024/01/08 01:17:33;;;;;;;7.10;3.95;;;;;;;-2.37;100.00;103289.56;5025382;28;20358;-71
2024/01/08 01:20:19;;;;;;;7.13;3.17;;;;;;;-2.37;100.00;103283.47;5054175;28;20519;-71
2024/01/08 01:23:05;;;;;;;6.07;3.65;;;;;;;-2.37;100.00;103286.06;5027982;28;20337;-72
2024/01/08 01:25:50;;;;;;;6.22;3.63;;;;;;;-2.39;100.00;103291.19;5050345;28;20048;-72
2024/01/08 01:28:36;;;;;;;7.15;3.30;;;;;;;-2.37;100.00;103286.06;5055500;28;20432;-72
2024/01/08 01:31:22;;;;;;;5.20;3.35;;;;;;;-2.36;100.00;103293.94;5054484;28;20541;-72
2024/01/08 01:34:10;;;;;;;7.28;3.60;;;;;;;-2.38;100.00;103298.19;5053371;28;20593;-73
2024/01/08 01:36:56;;;;;;;5.32;3.53;;;;;;;-2.41;100.00;103303.22;5040781;28;20923;-72
2024/01/08 01:39:42;;;;;;;6.28;3.30;;;;;;;-2.44;100.00;103305.66;5051616;28;20047;-72
2024/01/08 01:42:27;;;;;;;5.90;3.53;;;;;;;-2.47;100.00;103313.28;5053579;28;20819;-72
2024/01/08 01:45:13;;;;;;;7.75;3.47;;;;;;;-2.49;100.00;103312.34;5052319;28;20135;-72
2024/01/08 01:47:59;;;;;;;5.90;3.20;;;;;;;-2.51;100.00;103316.56;5054462;28;20044;-73
2024/01/08 01:50:45;;;;;;;8.57;3.45;;;;;;;-2.54;100.00;103316.41;5040601;28;20047;-73
2024/01/08 01:53:31;;;;;;;7.22;4.03;;;;;;;-2.57;100.00;103327.50;5054372;28;20853;-73
2024/01/08 01:56:17;;;;;;;5.82;3.28;;;;;;;-2.60;100.00;103328.25;5011828;28;20036;-72
2024/01/08 01:59:04;;;;;;;7.75;3.08;;;;;;;-2.62;100.00;103335.06;5056694;28;20051;-72
2024/01/08 02:01:50;;;;;;;6.70;3.40;;;;;;;-2.64;100.00;103336.72;5045442;28;20040;-72
2024/01/08 02:04:35;;;;;;;5.93;3.70;;;;;;;-2.65;100.00;103334.94;5039142;28;20036;-71
2024/01/08 02:07:21;;;;;;;4.55;3.15;;;;;;;-2.68;100.00;103339.09;5052168;28;20051;-71
2024/01/08 02:10:07;;;;;;;7.65;3.38;;;;;;;-2.71;100.00;103334.63;5043633;28;20048;-71
2024/01/08 02:12:53;;;;;;;6.82;4.05;;;;;;;-2.74;100.00;103348.31;5052141;28;20029;-70
2024/01/08 02:15:39;;;;;;;6.10;3.05;;;;;;;-2.77;100.00;103355.06;5051528;28;20064;-71
2024/01/08 02:18:24;;;;;;;9.13;3.15;;;;;;;-2.82;100.00;103354.84;5056337;28;20044;-71
2024/01/08 02:21:10;;;;;;;5.95;3.38;;;;;;;-2.85;100.00;103356.38;5044466;28;20047;-71
2024/01/08 02:23:56;;;;;;;5.57;3.40;;;;;;;-2.90;100.00;103354.44;5037972;28;20056;-72
2024/01/08 02:26:42;;;;;;;7.25;3.38;;;;;;;-2.92;100.00;103352.56;5033490;28;20531;-72
2024/01/08 02:29:28;;;;;;;5.00;3.17;;;;;;;-2.95;100.00;103353.31;5038330;28;20062;-71
2024/01/08 02:32:14;;;;;;;6.93;3.60;;;;;;;-2.96;100.00;103356.72;5035311;28;20419;-71
2024/01/08 02:35:00;;;;;;;4.40;3.05;;;;;;;-2.96;100.00;103367.09;5035558;28;20094;-71
2024/01/08 02:37:45;;;;;;;6.97;3.95;;;;;;;-2.99;100.00;103364.34;5035210;28;20676;-72
2024/01/08 02:40:31;;;;;;;7.68;3.55;;;;;;;-2.99;100.00;103366.94;5036656;28;20048;-72
2024/01/08 02:43:17;;;;;;;6.18;3.42;;;;;;;-2.98;100.00;103371.31;5037453;28;20040;-72
2024/01/08 02:46:03;;;;;;;6.13;3.63;;;;;;;-2.95;100.00;103374.03;5048363;28;20048;-72
2024/01/08 02:48:49;;;;;;;5.13;3.40;;;;;;;-2.94;100.00;103375.81;5036916;28;20158;-71
2024/01/08 02:51:34;;;;;;;6.53;3.65;;;;;;;-2.91;100.00;103373.41;5048793;28;20040;-72
2024/01/08 02:54:20;;;;;;;6.75;3.60;;;;;;;-2.90;100.00;103377.78;5048188;28;20090;-71
2024/01/08 02:57:06;;;;;;;7.22;4.07;;;;;;;-2.86;100.00;103376.22;5051883;28;20044;-72
2024/01/08 02:59:51;;;;;;;6.22;4.07;;;;;;;-2.85;100.00;103384.91;5047963;28;20057;-72
2024/01/08 03:02:38;;;;;;;5.00;3.20;;;;;;;-2.81;100.00;103390.31;5048640;28;20123;-72
2024/01/08 03:05:24;;;;;;;7.75;4.00;;;;;;;-2.80;100.00;103386.91;5047383;28;20986;-72
2024/01/08 03:08:09;;;;;;;8.48;4.20;;;;;;;-2.78;100.00;103392.19;5045778;28;20048;-72
2024/01/08 03:10:55;;;;;;;7.72;3.38;;;;;;;-2.78;100.00;103384.41;5046898;28;20681;-72
2024/01/08 03:13:41;;;;;;;8.32;4.00;;;;;;;-2.76;100.00;103385.38;5036456;28;20485;-72
2024/01/08 03:16:26;;;;;;;7.65;4.07;;;;;;;-2.74;100.00;103383.72;5048725;28;20525;-72
2024/01/08 03:19:12;;;;;;;6.78;3.95;;;;;;;-2.75;100.00;103381.97;5045507;28;20068;-72
2024/01/08 03:22:01;;;;;;;7.28;3.70;;;;;;;-2.75;100.00;103372.50;5047594;28;20549;-72
2024/01/08 03:24:46;;;;;;;7.35;4.10;;;;;;;-2.74;100.00;103371.66;5024853;28;20115;-72
2024/01/08 03:27:32;;;;;;;8.88;3.70;;;;;;;-2.74;100.00;103376.84;5047939;28;20141;-71
2024/01/08 03:30:18;;;;;;;8.73;4.18;;;;;;;-2.73;100.00;103367.34;5034014;28;20041;-71
2024/01/08 03:33:04;;;;;;;7.60;4.35;;;;;;;-2.72;100.00;103371.75;5033616;28;20044;-71
2024/01/08 03:35:50;;;;;;;7.28;3.92;;;;;;;-2.70;100.00;103377.00;5037507;28;20048;-70
2024/01/08 03:38:35;;;;;;;6.90;3.72;;;;;;;-2.67;100.00;103356.41;5037192;28;20032;-73
2024/01/08 03:41:22;;;;;;;8.90;4.22;;;;;;;-2.66;100.00;103351.31;5047355;28;20050;-73
2024/01/08 03:44:08;;;;;;;8.13;3.92;;;;;;;-2.64;100.00;103354.88;5045433;28;20052;-73
2024/01/08 03:46:54;;;;;;;7.68;3.88;;;;;;;-2.61;100.00;103355.00;5021312;28;20048;-71
2024/01/08 03:49:40;;;;;;;6.78;3.63;;;;;;;-2.60;100.00;103356.78;5046725;28;20543;-72
2024/01/08 03:52:25;;;;;;;7.93;3.60;;;;;;;-2.58;100.00;103350.81;5033798;28;20471;-71
2024/01/08 03:55:11;;;;;;;6.80;3.83;;;;;;;-2.56;100.00;103360.41;5037365;28;21060;-71
2024/01/08 03:57:57;;;;;;;6.88;4.32;;;;;;;-2.56;100.00;103350.03;5046412;28;20102;-71
2024/01/08 04:00:43;;;;;;;9.00;4.65;;;;;;;-2.53;100.00;103349.31;5033562;28;20057;-71
2024/01/08 04:03:29;;;;;;;8.60;3.92;;;;;;;-2.52;100.00;103351.06;5045631;28;20131;-72
2024/01/08 04:06:16;;;;;;;9.32;3.90;;;;;;;-2.50;100.00;103349.47;5046825;28;20051;-71
2024/01/08 04:09:02;;;;;;;7.68;4.38;;;;;;;-2.50;100.00;103349.47;5048321;28;20053;-71
2024/01/08 04:11:47;;;;;;;9.65;4.07;;;;;;;-2.51;100.00;103343.38;5046581;28;20045;-71
2024/01/08 04:14:33;;;;;;;6.82;3.90;;;;;;;-2.48;100.00;103347.84;5047403;28;20749;-72
2024/01/08 04:17:19;;;;;;;8.43;4.22;;;;;;;-2.46;100.00;103341.00;5047327;28;20494;-72
2024/01/08 04:20:05;;;;;;;8.55;4.20;;;;;;;-2.44;100.00;103344.59;5049024;28;20562;-71
2024/01/08 04:22:51;;;;;;;9.25;3.97;;;;;;;-2.42;100.00;103340.34;5047878;28;20435;-73
2024/01/08 04:25:37;;;;;;;7.72;3.85;;;;;;;-2.41;100.00;103342.13;5047637;28;20049;-72
2024/01/08 04:28:23;;;;;;;7.75;4.65;;;;;;;-2.41;100.00;103344.72;5046141;28;20040;-72
2024/01/08 04:31:17;;;;;;;8.52;4.13;;;;;;;-2.42;100.00;103335.16;5037967;28;20036;-71
2024/01/08 04:34:02;;;;;;;7.80;4.20;;;;;;;-2.41;100.00;103334.34;5045596;28;20210;-71
2024/01/08 04:36:48;;;;;;;7.35;4.30;;;;;;;-2.40;100.00;103345.63;5033077;28;20064;-72
2024/01/08 04:39:34;;;;;;;6.97;4.13;;;;;;;-2.38;100.00;103338.78;5047515;28;20557;-71
2024/01/08 04:42:20;;;;;;;6.88;4.10;;;;;;;-2.39;100.00;103342.22;5045269;28;20052;-71
2024/01/08 04:45:07;;;;;;;7.25;3.85;;;;;;;-2.38;100.00;103344.88;5046515;28;20039;-71
2024/01/08 04:47:52;;;;;;;8.57;4.40;;;;;;;-2.37;100.00;103349.25;5031797;28;20118;-72
2024/01/08 04:50:38;;;;;;;7.47;4.25;;;;;;;-2.32;100.00;103357.25;5037088;28;20714;-71
2024/01/08 04:53:24;;;;;;;7.75;4.53;;;;;;;-2.32;100.00;103355.56;5023656;28;20127;-71
2024/01/08 04:56:19;;;;;;;5.85;3.38;;;;;;;-2.30;100.00;103355.63;5047151;28;20179;-72
2024/01/08 04:59:05;;;;;;;7.43;4.25;;;;;;;-2.29;100.00;103352.22;5034329;28;20036;-72
2024/01/08 05:01:51;;;;;;;7.07;3.80;;;;;;;-2.28;100.00;103360.91;5037625;28;20049;-71
2024/01/08 05:04:37;;;;;;;7.90;3.88;;;;;;;-2.27;100.00;103357.47;5045315;28;21269;-70
2024/01/08 05:07:22;;;;;;;9.95;4.47;;;;;;;-2.26;100.00;103351.47;5029176;28;20045;-71
2024/01/08 05:10:08;;;;;;;7.88;3.83;;;;;;;-2.26;100.00;103352.38;5044416;28;20047;-71
2024/01/08 05:12:54;;;;;;;6.28;3.67;;;;;;;-2.25;100.00;103361.94;5047532;28;20049;-72
2024/01/08 05:15:40;;;;;;;7.15;3.95;;;;;;;-2.25;100.00;103361.94;5035674;28;20120;-72
2024/01/08 05:18:25;;;;;;;6.47;3.95;;;;;;;-2.25;100.00;103358.44;5043147;28;20048;-71
2024/01/08 05:21:13;;;;;;;8.50;4.05;;;;;;;-2.25;100.00;103361.03;5049388;28;20053;-72
2024/01/08 05:23:59;;;;;;;7.55;3.13;;;;;;;-2.23;100.00;103351.63;5048679;28;20036;-71
2024/01/08 05:26:45;;;;;;;8.38;3.67;;;;;;;-2.22;100.00;103366.38;5032212;28;20410;-70
2024/01/08 05:29:31;;;;;;;7.63;3.55;;;;;;;-2.21;100.00;103370.75;5038265;28;20396;-72
2024/01/08 05:32:16;;;;;;;7.15;3.78;;;;;;;-2.22;100.00;103381.97;5050531;28;20106;-70
2024/01/08 05:35:02;;;;;;;6.65;3.42;;;;;;;-2.22;100.00;103377.63;5047469;28;20036;-70
2024/01/08 05:37:48;;;;;;;7.28;3.22;;;;;;;-2.23;100.00;103381.06;5049859;28;20041;-71
2024/01/08 05:40:34;;;;;;;6.15;3.75;;;;;;;-2.24;100.00;103384.47;5049469;28;20044;-72
2024/01/08 05:43:19;;;;;;;5.03;3.15;;;;;;;-2.25;100.00;103387.88;5039897;28;20045;-73
2024/01/08 05:46:06;;;;;;;5.22;2.90;;;;;;;-2.25;100.00;103379.19;5052731;28;20487;-72
2024/01/08 05:48:51;;;;;;;4.80;3.00;;;;;;;-2.27;100.00;103396.41;5040144;28;20131;-71
2024/01/08 05:51:37;;;;;;;10.52;3.10;;;;;;;-2.29;100.00;103385.94;5039547;28;20059;-71
2024/01/08 05:54:23;;;;;;;4.47;2.47;;;;;;;-2.29;100.00;103395.47;5049395;28;20033;-73
2024/01/08 05:57:09;;;;;;;7.10;3.20;;;;;;;-2.33;100.00;103384.91;5051364;28;20051;-72
2024/01/08 05:59:54;;;;;;;6.75;3.00;;;;;;;-2.29;100.00;103405.84;5045779;28;20095;-71
2024/01/08 06:02:41;;;;;;;4.97;2.45;;;;;;;-2.35;100.00;103394.34;5048423;28;20076;-72
2024/01/08 06:05:27;;;;;;;6.72;2.65;;;;;;;-2.39;100.00;103404.50;5051676;28;20060;-72
2024/01/08 06:08:13;;;;;;;6.28;2.58;;;;;;;-2.43;100.00;103408.63;5048002;28;20594;-73
2024/01/08 06:10:59;;;;;;;4.90;2.75;;;;;;;-2.47;100.00;103411.88;5047049;28;20040;-73
2024/01/08 06:13:44;;;;;;;6.80;3.00;;;;;;;-2.52;100.00;103409.06;5047307;28;20143;-72
2024/01/08 06:16:35;;;;;;;5.72;3.10;;;;;;;-2.56;100.00;103412.31;5048453;28;20415;-71
2024/01/08 06:19:21;;;;;;;6.65;2.72;;;;;;;-2.62;100.00;103410.31;5053796;28;20770;-71
2024/01/08 06:22:08;;;;;;;6.10;2.85;;;;;;;-2.67;100.00;103419.53;5045688;28;20143;-73
2024/01/08 06:24:54;;;;;;;3.72;2.50;;;;;;;-2.70;100.00;103414.22;5039469;28;20171;-72
2024/01/08 06:27:39;;;;;;;4.20;3.00;;;;;;;-2.73;100.00;103417.53;5049906;28;20056;-72
2024/01/08 06:30:25;;;;;;;5.15;2.78;;;;;;;-2.74;100.00;103427.81;5048069;28;20044;-73
2024/01/08 06:33:11;;;;;;;4.47;2.78;;;;;;;-2.77;100.00;103427.69;5048387;28;20498;-71
2024/01/08 06:35:57;;;;;;;4.95;2.75;;;;;;;-2.81;100.00;103430.91;5045513;28;20499;-73
2024/01/08 06:38:42;;;;;;;3.65;2.50;;;;;;;-2.82;100.00;103418.75;5025586;28;20078;-71
2024/01/08 06:41:28;;;;;;;5.05;2.75;;;;;;;-2.87;100.00;103429.78;5047925;28;20128;-72
2024/01/08 06:44:14;;;;;;;5.10;3.10;;;;;;;-2.90;100.00;103428.72;5049239;28;20780;-72
2024/01/08 06:46:59;;;;;;;9.20;2.90;;;;;;;-2.94;100.00;103422.50;5032137;28;20045;-72
2024/01/08 06:49:45;;;;;;;4.65;2.60;;;;;;;-2.95;100.00;103428.50;5051517;28;20150;-71
2024/01/08 06:52:31;;;;;;;4.18;2.75;;;;;;;-2.97;100.00;103424.03;5032987;28;20036;-71
2024/01/08 06:55:17;;;;;;;6.00;2.78;;;;;;;-3.00;100.00;103425.66;5051186;28;20066;-71
2024/01/08 06:58:03;;;;;;;4.72;3.20;;;;;;;-3.02;100.00;103426.38;5048198;28;20495;-71
2024/01/08 07:00:49;;;;;;;7.15;3.15;;;;;;;-3.03;100.00;103422.03;5034719;28;20538;-71
2024/01/08 07:03:35;;;;;;;4.75;2.75;;;;;;;-3.04;100.00;103423.72;5047136;28;20105;-71
2024/01/08 07:06:21;;;;;;;6.07;3.08;;;;;;;-3.04;100.00;103428.91;5035696;28;20299;-72
2024/01/08 07:09:06;;;;;;;4.82;2.50;;;;;;;-3.05;100.00;103418.47;5050069;28;20051;-71
2024/01/08 07:11:52;;;;;;;6.43;2.97;;;;;;;-3.06;100.00;103419.28;5050862;28;20036;-72
2024/01/08 07:14:45;;;;;;;5.53;2.83;;;;;;;-3.06;100.00;103425.34;5039798;28;20970;-71
2024/01/08 07:17:31;;;;;;;4.93;2.58;;;;;;;-3.05;100.00;103421.94;5027589;28;20093;-71
2024/01/08 07:20:16;;;;;;;5.95;3.10;;;;;;;-3.01;100.00;103422.97;5034598;28;20126;-72
2024/01/08 07:23:04;;;;;;;6.20;3.00;;;;;;;-3.02;100.00;103423.78;5040170;28;20049;-72
2024/01/08 07:25:52;;;;;;;5.57;2.65;;;;;;;-3.06;100.00;103424.47;5049405;28;20043;-73
2024/01/08 07:28:38;;;;;;;5.85;3.10;;;;;;;-3.08;100.00;103420.88;5046264;28;21843;-73
2024/01/08 07:31:24;;;;;;;4.68;2.90;;;;;;;-3.07;100.00;103427.84;5051635;28;20041;-72
2024/01/08 07:34:09;;;;;;;5.95;3.10;;;;;;;-3.05;100.00;103426.25;5051614;28;20487;-72
2024/01/08 07:36:55;;;;;;;5.03;3.10;;;;;;;-3.03;100.00;103427.22;5051787;28;20082;-72
2024/01/08 07:39:41;;;;;;;7.10;3.15;;;;;;;-3.01;100.00;103436.84;5036701;28;20146;-72
2024/01/08 07:42:27;;;;;;;5.38;2.85;;;;;;;-2.96;100.00;103434.50;5051367;28;20494;-74
2024/01/08 07:45:12;;;;;;;4.75;2.53;;;;;;;-2.94;100.00;103435.47;5047850;28;20049;-73
2024/01/08 07:47:58;;;;;;;7.25;3.25;;;;;;;-2.90;100.00;103452.97;5052214;28;20792;-71
2024/01/08 07:50:47;;;;;;;5.30;3.20;;;;;;;-2.88;100.00;103440.09;5051744;28;20618;-72
2024/01/08 07:53:33;;;;;;;6.68;3.10;;;;;;;-2.82;100.00;103447.28;5051106;28;20052;-72
2024/01/08 07:56:24;;;;;;;5.80;3.13;;;;;;;-2.77;100.00;103451.91;5030732;28;20075;-73
2024/01/08 07:59:10;;;;;;;9.43;3.13;;;;;;;-2.74;100.00;103449.47;5036893;28;20028;-71
2024/01/08 08:01:56;;;;;;;5.25;3.08;;;;;;;-2.71;100.00;103460.81;5051622;28;20052;-71
2024/01/08 08:04:42;;;;;;;7.20;2.53;;;;;;;-2.67;100.00;103460.19;5052200;28;20080;-73
2024/01/08 08:07:30;;;;;;;5.50;2.90;;;;;;;-2.62;100.00;103463.91;5061212;28;20430;-75
2024/01/08 08:10:16;;;;;;;7.07;2.35;;;;;;;-2.58;100.00;103464.94;5038162;28;20053;-73
2024/01/08 08:13:02;;;;;;;4.40;2.65;;;;;;;-2.53;100.00;103473.84;5051487;28;20049;-71
2024/01/08 08:15:48;;;;;;;7.90;4.45;;;;;;;-2.51;100.00;103475.69;5056750;28;20050;-73
2024/01/08 08:18:34;;;;;;;6.18;3.28;;;;;;;-2.49;100.00;103471.50;5041085;28;20063;-73
2024/01/08 08:21:20;;;;;;;6.43;2.90;;;;;;;-2.46;100.00;103479.44;5052875;28;20056;-73
2024/01/08 08:24:05;;;;;;;6.28;3.00;;;;;;;-2.46;100.00;103470.75;5048366;28;20044;-73
2024/01/08 08:26:51;;;;;;;6.03;3.15;;;;;;;-2.43;100.00;103478.69;5055222;28;20048;-73
2024/01/08 08:29:44;;;;;;;5.45;2.53;;;;;;;-2.40;100.00;103497.00;5070079;28;20491;-76
2024/01/08 08:32:29;;;;;;;5.53;2.90;;;;;;;-2.39;100.00;103493.59;5058223;28;20037;-72
2024/01/08 08:35:15;;;;;;;6.18;4.00;;;;;;;-2.39;100.00;103490.13;5053373;28;20257;-73
2024/01/08 08:38:04;;;;;;;5.10;2.85;;;;;;;-2.36;100.00;103508.44;5046506;28;20064;-75
2024/01/08 08:40:56;;;;;;;8.70;3.30;;;;;;;-2.34;100.00;103489.53;5055166;28;20519;-71
2024/01/08 08:43:42;;;;;;;6.07;2.67;;;;;;;-2.29;100.00;103494.97;5053755;28;20124;-73
2024/01/08 08:46:29;;;;;;;4.93;2.80;;;;;;;-2.26;100.00;103494.22;5052051;28;20044;-73
2024/01/08 08:49:16;;;;;;;4.50;2.78;;;;;;;-2.24;100.00;103497.81;5063018;28;20804;-73
2024/01/08 08:52:02;;;;;;;5.32;3.20;;;;;;;-2.23;100.00;103497.88;5044701;28;20404;-75
2024/01/08 08:54:48;;;;;;;4.97;2.45;;;;;;;-2.20;100.00;103499.72;5040213;28;20563;-72
2024/01/08 08:57:34;;;;;;;5.47;2.15;;;;;;;-2.18;100.00;103500.72;5026812;28;20606;-73
2024/01/08 09:00:20;;;;;;;5.07;2.38;;;;;;;-2.14;100.00;103515.63;5059098;28;20159;-75
2024/01/08 09:03:05;;;;;;;6.28;2.50;;;;;;;-2.11;100.00;103513.19;5048155;28;20083;-75
2024/01/08 09:05:52;;;;;;;3.70;2.13;;;;;;;-2.07;100.00;103514.25;5058091;28;20040;-74
2024/01/08 09:08:38;;;;;;;5.60;2.42;;;;;;;-2.03;100.00;103512.69;5060283;28;21190;-74
2024/01/08 09:11:23;;;;;;;4.18;2.42;;;;;;;-2.00;100.00;103520.63;5051914;28;20100;-73
2024/01/08 09:14:09;;;;;;;4.05;2.38;;;;;;;-1.97;100.00;103528.56;5051340;28;20056;-75
2024/01/08 09:16:55;;;;;;;8.73;2.60;;;;;;;-1.97;100.00;103525.97;5064405;28;20267;-74
2024/01/08 09:19:41;;;;;;;4.88;2.50;;;;;;;-1.92;100.00;103524.47;5059982;28;20051;-73
2024/01/08 09:22:26;;;;;;;5.45;2.38;;;;;;;-1.88;100.00;103529.03;5060387;28;20045;-74
2024/01/08 09:25:12;;;;;;;5.65;2.50;;;;;;;-1.85;100.00;103539.56;5015386;28;20044;-73
2024/01/08 09:27:58;;;;;;;5.50;2.17;;;;;;;-1.82;100.00;103538.81;5056063;28;20539;-72
2024/01/08 09:30:44;;;;;;;5.18;2.40;;;;;;;-1.80;100.00;103547.59;5046826;28;20040;-73
2024/01/08 09:33:30;;;;;;;4.97;2.38;;;;;;;-1.75;100.00;103545.22;5046555;28;20040;-72
2024/01/08 09:36:16;;;;;;;4.68;2.58;;;;;;;-1.75;100.00;103545.22;5056603;28;20041;-72
2024/01/08 09:39:02;;;;;;;6.57;2.60;;;;;;;-1.72;100.00;103546.25;5057381;28;20049;-74
2024/01/08 09:41:48;;;;;;;5.13;2.22;;;;;;;-1.69;100.00;103555.91;5038606;28;20676;-72
2024/01/08 09:44:36;;;;;;;6.35;2.10;;;;;;;-1.68;100.00;103555.97;5025870;28;20048;-71
2024/01/08 09:47:23;;;;;;;4.97;2.70;;;;;;;-1.63;100.00;103569.22;5041095;28;20033;-72
2024/01/08 09:50:10;;;;;;;6.03;2.47;;;;;;;-1.62;100.00;103552.81;5042746;28;20062;-71
2024/01/08 09:52:56;;;;;;;2.83;2.10;;;;;;;-1.61;100.00;103562.38;5040681;28;20041;-72
2024/01/08 09:55:44;;;;;;;4.50;1.88;;;;;;;-1.59;100.00;103555.53;5042368;28;20071;-71
2024/01/08 09:58:30;;;;;;;4.00;2.50;;;;;;;-1.60;100.00;103561.56;5047278;28;20148;-73
2024/01/08 10:01:15;;;;;;;4.65;2.28;;;;;;;-1.57;100.00;103560.81;5038623;28;20044;-74
2024/01/08 10:04:01;;;;;;;5.03;2.28;;;;;;;-1.54;100.00;103566.16;5055987;28;20044;-73
2024/01/08 10:06:47;;;;;;;5.50;2.75;;;;;;;-1.54;100.00;103563.56;5058855;28;20057;-73
2024/01/08 10:09:36;;;;;;;3.70;2.08;;;;;;;-1.51;100.00;103566.31;5057896;28;20043;-74
2024/01/08 10:12:22;;;;;;;3.88;2.13;;;;;;;-1.51;100.00;103563.72;5057543;28;20044;-75
2024/01/08 10:15:17;;;;;;;3.45;2.05;;;;;;;-1.51;100.00;103564.59;5039995;28;20075;-71
2024/01/08 10:18:08;;;;;;;4.95;1.90;;;;;;;-1.49;100.00;103566.41;5057153;28;20117;-73
2024/01/08 10:21:23;;;;;;;3.30;1.92;;;;;;;-1.49;100.00;103553.41;5031527;28;20055;-71
2024/01/08 10:24:09;;;;;;;2.85;1.90;;;;;;;-1.51;100.00;103556.78;5049947;28;20121;-73
2024/01/08 10:26:55;;;;;;;2.33;1.80;;;;;;;-1.49;100.00;103563.81;5042822;28;20050;-74
2024/01/08 10:29:41;;;;;;;4.32;2.10;;;;;;;-1.50;100.00;103549.91;5054606;28;20160;-72
2024/01/08 10:32:26;;;;;;;6.70;1.88;;;;;;;-1.49;100.00;103556.88;5052848;28;20083;-74
2024/01/08 10:35:13;;;;;;;2.45;1.95;;;;;;;-1.48;100.00;103562.97;5052765;28;21187;-74
2024/01/08 10:38:01;;;;;;;7.80;2.17;;;;;;;-1.48;100.00;103565.56;5054119;28;20064;-74
2024/01/08 10:40:47;;;;;;;4.95;2.67;;;;;;;-1.47;100.00;103557.84;5056580;28;20032;-74
2024/01/08 10:43:35;;;;;;;3.50;2.08;;;;;;;-1.48;100.00;103549.97;5047983;28;20055;-74
2024/01/08 10:46:26;;;;;;;2.65;1.92;;;;;;;-1.47;100.00;103555.22;5060791;28;20155;-75
2024/01/08 10:49:18;;;;;;;3.85;2.50;;;;;;;-1.43;100.00;103551.97;5049813;28;20175;-74
2024/01/08 10:52:11;;;;;;;5.78;2.55;;;;;;;-1.43;100.00;103551.97;5047937;28;20048;-75
2024/01/08 10:54:58;;;;;;;3.42;2.25;;;;;;;-1.44;100.00;103546.69;5044627;28;20495;-73
2024/01/08 10:58:03;;;;;;;4.75;2.65;;;;;;;-1.46;100.00;103544.06;5027061;28;20914;-73
2024/01/08 11:00:50;;;;;;;3.55;2.10;;;;;;;-1.45;100.00;103542.31;5023937;28;20040;-73
2024/01/08 11:03:36;;;;;;;2.72;2.13;;;;;;;-1.45;100.00;103534.53;5046436;28;20494;-73
2024/01/08 11:06:24;;;;;;;3.95;2.65;;;;;;;-1.43;100.00;103533.78;5056943;28;20844;-74
2024/01/08 11:09:30;;;;;;;4.20;2.13;;;;;;;-1.42;100.00;103529.50;5059272;28;20048;-75
2024/01/08 11:12:19;;;;;;;4.07;2.35;;;;;;;-1.40;100.00;103535.66;5046941;28;20067;-75
2024/01/08 11:15:06;;;;;;;2.13;1.95;;;;;;;-1.41;100.00;103531.28;5058172;28;20424;-75
2024/01/08 11:17:57;;;;;;;2.55;2.20;;;;;;;-1.39;100.00;103524.41;5055520;28;20121;-75
2024/01/08 11:20:45;;;;;;;6.93;2.60;;;;;;;-1.37;100.00;103531.47;5056327;28;20535;-75
2024/01/08 11:23:32;;;;;;;3.67;2.28;;;;;;;-1.37;100.00;103528.88;5052467;28;20044;-74
2024/01/08 11:26:21;;;;;;;4.10;2.50;;;;;;;-1.35;100.00;103531.56;5054105;28;20044;-74
2024/01/08 11:29:11;;;;;;;3.58;2.60;;;;;;;-1.34;100.00;103527.25;5020572;28;20033;-75
2024/01/08 11:32:25;;;;;;;3.80;2.35;;;;;;;-1.37;100.00;103523.69;5051323;28;20076;-73
2024/01/08 11:35:13;;;;;;;4.07;2.67;;;;;;;-1.37;100.00;103534.09;5048089;28;20395;-73
2024/01/08 11:38:17;;;;;;;4.40;2.40;;;;;;;-1.37;100.00;103527.97;5054672;28;20040;-74
2024/01/08 11:41:03;;;;;;;4.97;2.90;;;;;;;-1.40;100.00;103538.25;5054318;28;20032;-74
2024/01/08 11:43:49;;;;;;;4.57;2.38;;;;;;;-1.39;100.00;103540.03;5052540;28;20586;-73
2024/01/08 11:46:35;;;;;;;5.32;2.88;;;;;;;-1.41;100.00;103536.47;5052424;28;20056;-74
2024/01/08 11:49:20;;;;;;;2.60;2.05;;;;;;;-1.41;100.00;103536.47;5056952;28;20056;-75
2024/01/08 11:52:08;;;;;;;3.97;2.58;;;;;;;-1.38;100.00;103532.31;5041114;28;20376;-73
2024/01/08 11:54:57;;;;;;;4.32;2.60;;;;;;;-1.34;100.00;103537.63;5056625;28;20058;-73
2024/01/08 11:57:43;;;;;;;4.45;2.50;;;;;;;-1.37;100.00;103530.56;5037779;28;20040;-73
2024/01/08 12:00:29;;;;;;;7.78;4.55;;;;;;;-1.36;100.00;103529.78;5047182;28;20118;-73
2024/01/08 12:03:15;;;;;;;2.50;2.03;;;;;;;-1.37;100.00;103551.38;5045040;28;20135;-73
2024/01/08 12:06:04;;;;;;;8.20;2.47;;;;;;;-1.39;100.00;103529.63;5052182;28;20052;-73
2024/01/08 12:08:54;;;;;;;3.28;2.17;;;;;;;-1.40;100.00;103527.84;5042117;28;20075;-74
2024/01/08 12:11:40;;;;;;;5.22;2.30;;;;;;;-1.36;100.00;103519.38;5044304;28;20048;-73
2024/01/08 12:14:27;;;;;;;4.53;2.10;;;;;;;-1.36;100.00;103519.38;5048771;28;20028;-72
2024/01/08 12:17:18;;;;;;;3.45;2.30;;;;;;;-1.31;100.00;103525.66;5025175;28;20105;-74
2024/01/08 12:20:04;;;;;;;4.82;1.98;;;;;;;-1.29;100.00;103508.47;5037396;28;20095;-74
2024/01/08 12:22:50;;;;;;;2.72;2.25;;;;;;;-1.25;100.00;103517.28;5033989;28;20044;-71
2024/01/08 12:25:36;;;;;;;3.13;2.20;;;;;;;-1.21;100.00;103506.19;5026625;28;20076;-76
2024/01/08 12:28:26;;;;;;;3.47;2.33;;;;;;;-1.18;100.00;103519.34;5044853;28;20037;-74
2024/01/08 12:31:12;;;;;;;3.15;2.25;;;;;;;-1.13;100.00;103511.75;5045096;28;20032;-74
2024/01/08 12:33:58;;;;;;;5.72;2.47;;;;;;;-1.10;100.00;103506.69;5033207;28;20169;-74
2024/01/08 12:36:44;;;;;;;4.88;2.42;;;;;;;-1.08;100.00;103510.28;5048430;28;20063;-71
2024/01/08 12:39:31;;;;;;;4.75;2.53;;;;;;;-1.09;100.00;103508.50;5037876;28;21909;-74
2024/01/08 12:42:17;;;;;;;3.83;2.33;;;;;;;-1.09;100.00;103508.50;5050737;28;20078;-74
2024/01/08 12:45:05;;;;;;;3.80;2.50;;;;;;;-1.09;100.00;103508.50;5049540;28;20075;-74